Time;durP1;ratioP1;P1;durP2;ratioP2;P2;SDS_P1;SDS_P2;PMS_P1;PMS_P2;Temp;Humidity;BMP_temperature;BMP_pressure;BME280_temperature;BME280_humidity;BME280_pressure;Samples;Min_cycle;Max_cycle;Signal;HPM_P1;HPM_P2
2022/02/01 00:01:58;;;;;;;;;;;;;;;0.95;95.30;96500.78;4986832;28;19957;-74
2022/02/01 00:05:30;;;;;;;;;;;;;;;0.94;95.07;96506.09;4985471;28;19978;-74
2022/02/01 00:07:37;;;;;;;;;;;;;;;0.93;96.89;96510.47;4969532;28;19955;-74
2022/02/01 00:10:15;;;;;;;;;;;;;;;0.91;97.04;96520.13;4987189;28;19968;-73
2022/02/01 00:20:36;;;;;;;;;;;;;;;0.88;97.51;96533.34;4990177;28;20410;-75
2022/02/01 00:34:22;;;;;;;;;;;;;;;0.74;97.24;96552.81;4984803;28;19972;-74
2022/02/01 00:36:58;;;;;;;;;;;;;;;0.71;97.07;96560.84;4975670;28;20454;-74
2022/02/01 00:39:30;;;;;;;;;;;;;;;0.70;96.57;96555.84;4989921;28;20416;-74
2022/02/01 00:41:56;;;;;;;;;;;;;;;0.73;96.63;96558.91;4981654;28;20418;-73
2022/02/01 00:44:22;;;;;;;;;;;;;;;0.75;95.85;96554.41;4984616;28;19980;-74
2022/02/01 00:46:48;;;;;;;;;;;;;;;0.76;96.27;96570.75;4991454;28;20048;-74
2022/02/01 00:49:14;;;;;;;;;;;;;;;0.78;96.24;96576.56;4984239;28;20390;-73
2022/02/01 00:51:40;;;;;;;;;;;;;;;0.79;96.71;96571.22;4982605;28;19963;-73
2022/02/01 00:54:06;;;;;;;;;;;;;;;0.82;96.88;96575.28;4991265;28;20063;-74
2022/02/01 00:56:32;;;;;;;;;;;;;;;0.87;96.98;96590.31;4982510;28;19977;-73
2022/02/01 00:58:58;;;;;;;;;;;;;;;0.89;96.49;96593.56;4983720;28;20483;-74
2022/02/01 01:01:24;;;;;;;;;;;;;;;0.92;96.90;96591.44;4984516;28;19955;-74
2022/02/01 01:03:50;;;;;;;;;;;;;;;0.91;96.58;96592.44;4985441;28;19957;-74
2022/02/01 01:06:16;;;;;;;;;;;;;;;0.90;96.80;96590.78;4983577;28;20016;-74
2022/02/01 01:08:42;;;;;;;;;;;;;;;0.89;96.93;96588.38;4982945;28;19972;-73
2022/02/01 01:11:09;;;;;;;;;;;;;;;0.87;96.93;96591.13;4985066;28;19967;-75
2022/02/01 01:45:57;;;;;;;;;;;;;;;0.81;97.70;96608.03;4984172;28;19944;-74
2022/02/01 01:53:53;;;;;;;;;;;;;;;0.83;96.14;96615.63;4983523;28;19984;-73
2022/02/01 01:56:19;;;;;;;;;;;;;;;0.86;96.07;96607.59;4986940;28;19966;-74
2022/02/01 01:58:45;;;;;;;;;;;;;;;0.89;96.24;96619.38;4981567;28;19973;-74
2022/02/01 02:01:14;;;;;;;;;;;;;;;0.90;96.41;96621.78;4980172;28;20383;-74
2022/02/01 02:03:41;;;;;;;;;;;;;;;0.92;96.32;96631.97;4984435;28;19962;-74
2022/02/01 02:06:07;;;;;;;;;;;;;;;0.93;96.11;96638.75;4989339;28;19958;-74
2022/02/01 02:08:34;;;;;;;;;;;;;;;0.93;95.62;96631.81;4987729;28;20327;-74
2022/02/01 02:11:14;;;;;;;;;;;;;;;0.96;96.02;96656.53;4984848;28;19959;-73
2022/02/01 02:16:32;;;;;;;;;;;;;;;1.01;95.50;96636.22;4984604;28;19952;-74
2022/02/01 02:18:58;;;;;;;;;;;;;;;1.02;94.78;96635.25;4984462;28;19990;-74
2022/02/01 02:21:24;;;;;;;;;;;;;;;1.00;95.02;96625.06;4983219;28;19961;-74
2022/02/01 02:23:50;;;;;;;;;;;;;;;1.00;94.16;96619.09;4989002;28;20001;-74
2022/02/01 02:26:17;;;;;;;;;;;;;;;1.04;94.58;96642.84;4984538;28;19963;-73
2022/02/01 02:28:44;;;;;;;;;;;;;;;1.05;94.85;96668.53;4979445;28;19960;-74
2022/02/01 02:31:10;;;;;;;;;;;;;;;1.02;94.77;96669.63;4986524;28;19964;-74
2022/02/01 02:33:37;;;;;;;;;;;;;;;1.04;94.26;96672.06;4986913;28;19979;-73
2022/02/01 02:36:07;;;;;;;;;;;;;;;1.06;94.65;96682.25;4978372;28;19961;-74
2022/02/01 02:38:39;;;;;;;;;;;;;;;1.07;94.02;96687.28;4987892;28;19953;-74
2022/02/01 02:46:26;;;;;;;;;;;;;;;1.04;93.71;96694.50;4985743;28;19957;-74
2022/02/01 02:48:52;;;;;;;;;;;;;;;1.00;95.69;96699.97;4983732;28;19960;-73
2022/02/01 02:51:19;;;;;;;;;;;;;;;0.98;96.18;96704.47;4982844;28;20412;-74
2022/02/01 02:53:45;;;;;;;;;;;;;;;0.97;95.40;96715.75;4982926;28;19976;-74
2022/02/01 02:56:11;;;;;;;;;;;;;;;0.93;95.64;96719.63;4988225;28;20012;-74
2022/02/01 02:58:37;;;;;;;;;;;;;;;0.91;95.48;96718.94;4980576;28;20420;-73
2022/02/01 03:01:04;;;;;;;;;;;;;;;0.89;95.17;96723.44;4967503;28;19958;-74
2022/02/01 03:03:30;;;;;;;;;;;;;;;0.89;96.07;96733.78;4982616;28;19955;-74
2022/02/01 03:05:56;;;;;;;;;;;;;;;0.88;96.30;96732.13;4980670;28;19959;-75
2022/02/01 03:08:24;;;;;;;;;;;;;;;0.87;95.43;96740.06;4988264;28;19998;-73
2022/02/01 03:10:50;;;;;;;;;;;;;;;0.87;94.61;96730.53;4989423;28;19968;-74
2022/02/01 03:13:22;;;;;;;;;;;;;;;0.85;95.26;96721.31;4986208;28;19975;-74
2022/02/01 03:16:13;;;;;;;;;;;;;;;0.83;95.52;96715.50;4986936;28;19975;-74
2022/02/01 03:21:23;;;;;;;;;;;;;;;0.77;95.75;96730.59;4985244;28;19969;-75
2022/02/01 03:23:49;;;;;;;;;;;;;;;0.80;96.37;96724.34;4981584;28;19965;-74
2022/02/01 03:26:15;;;;;;;;;;;;;;;0.81;95.72;96718.22;4989235;28;19996;-73
2022/02/01 03:28:41;;;;;;;;;;;;;;;0.80;95.35;96716.63;4991545;28;20336;-74
2022/02/01 03:31:07;;;;;;;;;;;;;;;0.77;95.40;96725.44;4984623;28;19999;-74
2022/02/01 03:33:33;;;;;;;;;;;;;;;0.77;95.84;96729.81;4980677;28;20058;-73
2022/02/01 03:35:59;;;;;;;;;;;;;;;0.78;96.13;96744.34;4985831;28;19959;-74
2022/02/01 03:38:25;;;;;;;;;;;;;;;0.77;95.67;96747.88;4992533;28;20021;-74
2022/02/01 03:40:51;;;;;;;;;;;;;;;0.79;95.25;96753.69;4983854;28;20052;-74
2022/02/01 03:43:16;;;;;;;;;;;;;;;0.82;95.44;96761.16;4982987;28;19960;-74
2022/02/01 03:45:42;;;;;;;;;;;;;;;0.82;94.71;96753.44;4993874;28;20000;-74
2022/02/01 03:48:08;;;;;;;;;;;;;;;0.81;93.36;96762.13;4983070;28;20436;-73
2022/02/01 03:50:34;;;;;;;;;;;;;;;0.82;93.01;96768.91;4987551;28;19956;-74
2022/02/01 03:53:00;;;;;;;;;;;;;;;0.81;92.16;96773.25;4990197;28;19961;-75
2022/02/01 03:55:26;;;;;;;;;;;;;;;0.84;93.20;96773.91;4983932;28;20527;-74
2022/02/01 03:57:52;;;;;;;;;;;;;;;0.86;91.47;96765.06;4986731;28;19967;-73
2022/02/01 04:00:18;;;;;;;;;;;;;;;0.87;91.04;96771.03;4986582;28;19951;-73
2022/02/01 04:02:44;;;;;;;;;;;;;;;0.89;90.86;96782.84;4987024;28;20398;-73
2022/02/01 04:05:10;;;;;;;;;;;;;;;0.91;90.82;96787.88;4988605;28;19952;-73
2022/02/01 04:07:36;;;;;;;;;;;;;;;0.91;91.32;96780.13;4986795;28;20479;-73
2022/02/01 04:10:02;;;;;;;;;;;;;;;0.92;90.28;96787.69;4981441;28;20420;-75
2022/02/01 04:12:29;;;;;;;;;;;;;;;0.92;89.95;96795.44;4989802;28;19950;-73
2022/02/01 04:14:57;;;;;;;;;;;;;;;0.93;90.43;96801.44;4985798;28;19984;-74
2022/02/01 04:17:23;;;;;;;;;;;;;;;0.92;89.08;96799.78;4985373;28;20403;-74
2022/02/01 04:19:49;;;;;;;;;;;;;;;0.92;88.97;96821.25;4988646;28;19960;-74
2022/02/01 04:22:16;;;;;;;;;;;;;;;0.93;89.31;96824.69;4982082;28;19962;-75
2022/02/01 04:24:43;;;;;;;;;;;;;;;0.93;89.16;96830.66;4986990;28;20423;-74
2022/02/01 04:27:29;;;;;;;;;;;;;;;0.93;88.69;96819.50;4990232;28;19965;-74
2022/02/01 04:30:05;;;;;;;;;;;;;;;0.92;86.39;96820.44;4986196;28;19959;-74
2022/02/01 04:32:32;;;;;;;;;;;;;;;0.87;85.59;96820.91;4980382;28;19964;-74
2022/02/01 04:34:59;;;;;;;;;;;;;;;0.89;87.42;96831.09;4985681;28;19985;-73
2022/02/01 04:37:26;;;;;;;;;;;;;;;0.90;87.18;96828.34;4984693;28;20474;-74
2022/02/01 04:39:52;;;;;;;;;;;;;;;0.93;87.53;96848.72;4987135;28;20428;-74
2022/02/01 04:42:18;;;;;;;;;;;;;;;0.93;88.18;96840.97;4985708;28;19954;-74
2022/02/01 04:44:44;;;;;;;;;;;;;;;0.94;87.00;96840.00;4986284;28;19962;-74
2022/02/01 04:47:10;;;;;;;;;;;;;;;0.94;88.08;96827.09;4984211;28;20005;-74
2022/02/01 04:49:36;;;;;;;;;;;;;;;0.93;87.59;96833.22;4982445;28;20306;-74
2022/02/01 04:52:02;;;;;;;;;;;;;;;0.92;86.50;96829.00;4986852;28;19960;-74
2022/02/01 04:54:28;;;;;;;;;;;;;;;0.90;87.75;96828.34;4985696;28;19981;-74
2022/02/01 04:56:54;;;;;;;;;;;;;;;0.91;85.73;96831.75;4988823;28;19971;-74
2022/02/01 04:59:19;;;;;;;;;;;;;;;0.90;86.60;96841.25;4982202;28;20375;-74
2022/02/01 05:01:45;;;;;;;;;;;;;;;0.90;86.23;96835.28;4984709;28;20006;-74
2022/02/01 05:04:16;;;;;;;;;;;;;;;0.91;86.90;96836.91;4987030;28;19949;-74
2022/02/01 05:06:42;;;;;;;;;;;;;;;0.91;85.86;96855.81;4986299;28;19967;-74
2022/02/01 05:09:10;;;;;;;;;;;;;;;0.91;85.84;96868.72;4985620;28;19963;-74
2022/02/01 05:11:36;;;;;;;;;;;;;;;0.91;85.87;96863.53;4986282;28;19960;-74
2022/02/01 05:14:07;;;;;;;;;;;;;;;0.93;86.55;96881.47;4987838;28;19968;-74
2022/02/01 05:19:10;;;;;;;;;;;;;;;0.90;84.73;96868.84;4983016;28;19953;-74
2022/02/01 05:21:38;;;;;;;;;;;;;;;0.89;85.09;96872.41;4984197;28;19965;-74
2022/02/01 05:24:04;;;;;;;;;;;;;;;0.88;86.51;96873.34;4990126;28;19966;-74
2022/02/01 05:26:32;;;;;;;;;;;;;;;0.89;85.14;96872.41;4984268;28;20356;-74
2022/02/01 05:28:58;;;;;;;;;;;;;;;0.87;86.58;96871.75;4985465;28;20328;-73
2022/02/01 05:31:25;;;;;;;;;;;;;;;0.89;87.73;96890.47;4981144;28;20045;-73
2022/02/01 05:33:51;;;;;;;;;;;;;;;0.92;88.05;96897.91;4983210;28;19970;-76
2022/02/01 05:36:17;;;;;;;;;;;;;;;0.91;85.55;96912.59;4987368;28;20337;-74
2022/02/01 05:38:48;;;;;;;;;;;;;;;0.89;84.46;96903.38;4986174;28;20088;-74
2022/02/01 05:41:14;;;;;;;;;;;;;;;0.86;84.79;96906.25;4983506;28;19970;-74
2022/02/01 05:43:42;;;;;;;;;;;;;;;0.86;85.04;96912.25;4981780;28;19960;-74
2022/02/01 05:46:09;;;;;;;;;;;;;;;0.87;84.32;96911.28;4985598;28;20439;-74
2022/02/01 05:48:35;;;;;;;;;;;;;;;0.87;85.73;96913.06;4989622;28;19956;-74
2022/02/01 05:51:01;;;;;;;;;;;;;;;0.87;86.39;96915.63;4985199;28;19952;-74
2022/02/01 05:53:27;;;;;;;;;;;;;;;0.84;84.72;96916.75;4985471;28;19958;-74
2022/02/01 05:55:53;;;;;;;;;;;;;;;0.83;85.54;96914.28;4982742;28;19969;-74
2022/02/01 05:58:20;;;;;;;;;;;;;;;0.83;84.43;96914.28;4986609;28;19970;-73
2022/02/01 06:00:46;;;;;;;;;;;;;;;0.83;85.05;96914.28;4987240;28;19968;-74
2022/02/01 06:03:12;;;;;;;;;;;;;;;0.81;84.43;96911.84;4989106;28;19962;-74
2022/02/01 06:05:38;;;;;;;;;;;;;;;0.82;86.04;96908.31;4985353;28;20412;-74
2022/02/01 06:08:04;;;;;;;;;;;;;;;0.83;86.40;96902.19;4979591;28;19963;-74
2022/02/01 06:10:30;;;;;;;;;;;;;;;0.85;85.73;96910.59;4982923;28;19956;-74
2022/02/01 06:12:56;;;;;;;;;;;;;;;0.88;86.69;96906.91;4990341;28;20420;-73
2022/02/01 06:15:23;;;;;;;;;;;;;;;0.86;86.65;96912.25;4982254;28;20380;-74
2022/02/01 06:17:49;;;;;;;;;;;;;;;0.85;86.90;96905.44;4985458;28;19961;-74
2022/02/01 06:20:15;;;;;;;;;;;;;;;0.85;84.88;96908.03;4986406;28;19981;-74
2022/02/01 06:22:41;;;;;;;;;;;;;;;0.82;85.46;96916.06;4985114;28;20050;-74
2022/02/01 06:25:08;;;;;;;;;;;;;;;0.78;84.58;96912.16;4978933;28;19964;-74
2022/02/01 06:27:34;;;;;;;;;;;;;;;0.75;84.58;96920.16;4986035;28;19956;-73
2022/02/01 06:30:00;;;;;;;;;;;;;;;0.73;84.66;96922.88;4983874;28;19949;-74
2022/02/01 06:32:31;;;;;;;;;;;;;;;0.72;84.39;96923.06;4983453;28;20038;-74
2022/02/01 06:34:57;;;;;;;;;;;;;;;0.70;84.88;96924.97;4982115;28;19971;-74
2022/02/01 06:37:23;;;;;;;;;;;;;;;0.67;85.00;96943.31;4983038;28;20048;-74
2022/02/01 06:39:49;;;;;;;;;;;;;;;0.65;83.70;96927.16;4985419;28;20472;-74
2022/02/01 06:42:16;;;;;;;;;;;;;;;0.62;83.22;96919.72;4986732;28;20360;-74
2022/02/01 06:44:43;;;;;;;;;;;;;;;0.62;84.37;96932.63;4987020;28;19973;-75
2022/02/01 06:47:09;;;;;;;;;;;;;;;0.63;84.82;96947.97;4983756;28;20331;-74
2022/02/01 06:49:35;;;;;;;;;;;;;;;0.63;84.63;96934.22;4988623;28;19958;-74
2022/02/01 06:52:02;;;;;;;;;;;;;;;0.63;84.06;96952.28;4992244;28;19957;-74
2022/02/01 06:54:28;;;;;;;;;;;;;;;0.61;82.24;96973.09;4986222;28;20430;-73
2022/02/01 06:56:54;;;;;;;;;;;;;;;0.59;82.68;96975.81;4985930;28;19975;-74
2022/02/01 06:59:20;;;;;;;;;;;;;;;0.59;84.26;96983.56;4987239;28;19949;-74
2022/02/01 07:01:46;;;;;;;;;;;;;;;0.59;84.06;96975.81;4989796;28;20416;-74
2022/02/01 07:04:12;;;;;;;;;;;;;;;0.58;82.89;96981.13;4984493;28;20014;-74
2022/02/01 07:06:38;;;;;;;;;;;;;;;0.58;83.13;96975.94;4984979;28;19988;-74
2022/02/01 07:09:04;;;;;;;;;;;;;;;0.56;83.09;96976.09;4993423;28;20464;-74
2022/02/01 07:11:31;;;;;;;;;;;;;;;0.57;84.41;96992.41;4988661;28;19965;-74
2022/02/01 07:13:57;;;;;;;;;;;;;;;0.60;84.67;97010.97;4987231;28;19976;-74
2022/02/01 07:16:23;;;;;;;;;;;;;;;0.62;83.30;97007.47;4987298;28;19955;-74
2022/02/01 07:18:49;;;;;;;;;;;;;;;0.62;84.11;97028.13;4985564;28;19961;-73
2022/02/01 07:21:17;;;;;;;;;;;;;;;0.62;84.22;97031.50;4990478;28;19984;-74
2022/02/01 07:23:44;;;;;;;;;;;;;;;0.61;83.40;97032.47;4987682;28;19976;-74
2022/02/01 07:26:10;;;;;;;;;;;;;;;0.61;83.86;97011.81;4993577;28;19984;-74
2022/02/01 07:28:36;;;;;;;;;;;;;;;0.63;83.92;97019.41;4983502;28;19960;-74
2022/02/01 07:31:03;;;;;;;;;;;;;;;0.62;83.27;97017.78;4987764;28;19956;-74
2022/02/01 07:33:29;;;;;;;;;;;;;;;0.63;83.90;97012.50;4982436;28;19960;-74
2022/02/01 07:35:56;;;;;;;;;;;;;;;0.62;82.49;96995.38;4991285;28;19975;-74
2022/02/01 07:38:24;;;;;;;;;;;;;;;0.62;83.75;96995.38;4990876;28;19960;-74
2022/02/01 07:40:50;;;;;;;;;;;;;;;0.62;82.12;97000.53;4982681;28;19953;-74
2022/02/01 07:43:17;;;;;;;;;;;;;;;0.65;83.06;96997.69;4987213;28;19984;-74
2022/02/01 07:45:44;;;;;;;;;;;;;;;0.69;83.87;97011.09;4991695;28;19961;-74
2022/02/01 07:48:11;;;;;;;;;;;;;;;0.73;83.27;97004.69;4986776;28;19958;-74
2022/02/01 07:50:39;;;;;;;;;;;;;;;0.75;82.63;97000.19;4985423;28;19957;-73
2022/02/01 07:53:05;;;;;;;;;;;;;;;0.78;82.87;96997.34;4988208;28;19973;-73
2022/02/01 07:55:31;;;;;;;;;;;;;;;0.80;81.22;96991.09;4987915;28;20417;-74
2022/02/01 07:57:57;;;;;;;;;;;;;;;0.84;82.62;96981.28;4987703;28;19959;-74
2022/02/01 08:00:22;;;;;;;;;;;;;;;0.90;82.75;96979.88;4985734;28;20006;-74
2022/02/01 08:02:55;;;;;;;;;;;;;;;0.94;81.66;96976.06;4981213;28;19960;-74
2022/02/01 08:05:21;;;;;;;;;;;;;;;0.95;81.47;96980.28;4987610;28;19963;-74
2022/02/01 08:07:47;;;;;;;;;;;;;;;0.98;82.07;96973.03;4986773;28;19959;-74
2022/02/01 08:10:16;;;;;;;;;;;;;;;1.01;82.05;96965.00;4988465;28;19998;-73
2022/02/01 08:17:57;;;;;;;;;;;;;;;1.09;81.88;96984.13;4984307;28;19966;-74
2022/02/01 08:20:32;;;;;;;;;;;;;;;1.11;81.50;96974.47;4982543;28;20423;-74
2022/02/01 08:23:02;;;;;;;;;;;;;;;1.15;82.65;96968.06;4988718;28;19966;-74
2022/02/01 08:25:29;;;;;;;;;;;;;;;1.21;82.73;96967.47;4990456;28;19968;-74
2022/02/01 08:27:56;;;;;;;;;;;;;;;1.28;82.49;96978.03;4981477;28;19954;-73
2022/02/01 08:30:22;;;;;;;;;;;;;;;1.31;80.62;96981.13;4986615;28;19954;-73
2022/02/01 08:32:49;;;;;;;;;;;;;;;1.32;82.02;96987.13;4984612;28;20076;-74
2022/02/01 08:35:15;;;;;;;;;;;;;;;1.30;80.76;96992.44;4992954;28;19971;-74
2022/02/01 08:37:41;;;;;;;;;;;;;;;1.31;81.90;96996.66;4983384;28;20331;-74
2022/02/01 08:40:13;;;;;;;;;;;;;;;1.27;80.07;97004.84;4985010;28;20336;-74
2022/02/01 08:42:39;;;;;;;;;;;;;;;1.27;82.13;97013.41;4987155;28;20293;-74
2022/02/01 08:45:05;;;;;;;;;;;;;;;1.31;82.10;97014.72;4987671;28;19960;-74
2022/02/01 08:47:31;;;;;;;;;;;;;;;1.33;80.87;97004.25;4984903;28;19967;-74
2022/02/01 08:49:57;;;;;;;;;;;;;;;1.36;82.59;97020.25;4986012;28;19995;-74
2022/02/01 08:52:34;;;;;;;;;;;;;;;1.39;82.60;97012.22;4985938;28;19963;-74
2022/02/01 08:55:01;;;;;;;;;;;;;;;1.50;82.66;97020.75;4983346;28;19981;-74
2022/02/01 08:57:31;;;;;;;;;;;;;;;1.63;80.84;97008.25;4982444;28;19974;-73
2022/02/01 09:00:01;;;;;;;;;;;;;;;1.71;81.27;97005.75;4990641;28;20345;-74
2022/02/01 09:02:27;;;;;;;;;;;;;;;1.74;80.60;97017.56;4983539;28;19955;-73
2022/02/01 09:04:54;;;;;;;;;;;;;;;1.72;80.79;97022.06;4978650;28;19962;-74
2022/02/01 09:07:20;;;;;;;;;;;;;;;1.67;80.95;97022.50;4987426;28;19953;-74
2022/02/01 09:09:46;;;;;;;;;;;;;;;1.65;81.55;97026.22;4990606;28;20473;-74
2022/02/01 09:12:12;;;;;;;;;;;;;;;1.62;81.30;97022.16;4991535;28;19953;-74
2022/02/01 09:14:39;;;;;;;;;;;;;;;1.58;81.82;97020.81;4985515;28;19966;-74
2022/02/01 09:17:06;;;;;;;;;;;;;;;1.52;81.77;97022.22;4978617;28;19953;-73
2022/02/01 09:19:32;;;;;;;;;;;;;;;1.50;82.40;97018.97;4981640;28;19968;-74
2022/02/01 09:21:59;;;;;;;;;;;;;;;1.48;82.57;97028.63;4986212;28;19956;-74
2022/02/01 09:24:25;;;;;;;;;;;;;;;1.48;82.60;97023.47;4984190;28;19974;-74
2022/02/01 09:26:51;;;;;;;;;;;;;;;1.47;82.30;97028.78;4989776;28;19982;-74
2022/02/01 09:29:18;;;;;;;;;;;;;;;1.41;82.12;97022.44;4980450;28;19965;-75
2022/02/01 09:31:43;;;;;;;;;;;;;;;1.40;82.55;97019.00;4983239;28;19950;-75
2022/02/01 09:34:09;;;;;;;;;;;;;;;1.41;82.18;97007.72;4986648;28;20370;-74
2022/02/01 09:36:35;;;;;;;;;;;;;;;1.41;82.72;97015.50;4989714;28;20421;-74
2022/02/01 09:39:02;;;;;;;;;;;;;;;1.45;83.37;97025.53;4984233;28;19957;-73
2022/02/01 09:41:29;;;;;;;;;;;;;;;1.52;82.68;97016.25;4981444;28;19961;-74
2022/02/01 09:43:55;;;;;;;;;;;;;;;1.62;83.29;97004.06;4983688;28;20035;-74
2022/02/01 09:46:21;;;;;;;;;;;;;;;1.67;81.10;97001.81;4989153;28;20388;-74
2022/02/01 09:48:47;;;;;;;;;;;;;;;1.73;81.29;97001.25;4986169;28;19977;-74
2022/02/01 09:51:13;;;;;;;;;;;;;;;1.88;82.29;97011.06;4980533;28;20412;-73
2022/02/01 09:53:39;;;;;;;;;;;;;;;1.96;79.98;97011.13;4980359;28;19974;-74
2022/02/01 09:56:05;;;;;;;;;;;;;;;1.99;81.07;97008.22;4983407;28;19983;-74
2022/02/01 09:58:36;;;;;;;;;;;;;;;2.02;80.63;97000.19;4988415;28;19961;-74
2022/02/01 10:01:17;;;;;;;;;;;;;;;2.09;81.06;97005.56;4979947;28;19944;-73
2022/02/01 10:03:43;;;;;;;;;;;;;;;2.13;80.45;97009.47;4983893;28;19953;-73
2022/02/01 10:06:10;;;;;;;;;;;;;;;2.19;80.82;97004.50;4991003;28;19967;-74
2022/02/01 10:08:37;;;;;;;;;;;;;;;2.32;79.34;97008.47;4968179;28;19999;-74
2022/02/01 10:11:04;;;;;;;;;;;;;;;2.58;79.35;97006.72;4979919;28;19960;-74
2022/02/01 10:13:34;;;;;;;;;;;;;;;2.80;77.23;97002.75;4971466;28;19951;-74
2022/02/01 10:16:10;;;;;;;;;;;;;;;2.94;78.60;97008.31;4978749;28;19983;-74
2022/02/01 10:18:36;;;;;;;;;;;;;;;3.01;77.10;96997.16;4970294;28;19946;-74
2022/02/01 10:21:09;;;;;;;;;;;;;;;3.06;76.58;96983.75;4978714;28;20334;-74
2022/02/01 10:23:37;;;;;;;;;;;;;;;3.10;76.30;96979.88;4985080;28;19957;-74
2022/02/01 10:26:03;;;;;;;;;;;;;;;3.09;75.56;96970.50;4987207;28;19961;-73
2022/02/01 10:28:45;;;;;;;;;;;;;;;3.09;74.86;96964.47;4984103;28;20320;-74
2022/02/01 10:31:12;;;;;;;;;;;;;;;3.11;75.72;96973.72;4974072;28;19966;-74
2022/02/01 10:36:17;;;;;;;;;;;;;;;3.14;77.01;96988.94;4987061;28;19969;-74
2022/02/01 10:38:44;;;;;;;;;;;;;;;3.03;75.38;96981.47;4990501;28;20331;-74
2022/02/01 10:41:13;;;;;;;;;;;;;;;2.93;74.42;96965.25;4980226;28;19958;-74
2022/02/01 10:43:39;;;;;;;;;;;;;;;2.80;73.77;96956.13;4983049;28;19955;-73
2022/02/01 10:46:09;;;;;;;;;;;;;;;2.72;75.40;96968.25;4985105;28;20001;-74
2022/02/01 10:48:36;;;;;;;;;;;;;;;2.65;74.81;96968.06;4987615;28;19959;-73
2022/02/01 10:51:02;;;;;;;;;;;;;;;2.62;75.22;96970.94;4984508;28;19960;-74
2022/02/01 10:53:28;;;;;;;;;;;;;;;2.60;73.98;96957.34;4982130;28;19968;-74
2022/02/01 10:55:54;;;;;;;;;;;;;;;2.60;76.25;96971.13;4983608;28;20339;-74
2022/02/01 10:58:20;;;;;;;;;;;;;;;2.62;76.43;96950.22;4986298;28;19957;-73
2022/02/01 11:00:47;;;;;;;;;;;;;;;2.66;75.92;96943.75;4984933;28;20034;-74
2022/02/01 11:03:13;;;;;;;;;;;;;;;2.66;73.45;96920.47;4985711;28;19964;-74
2022/02/01 11:05:46;;;;;;;;;;;;;;;2.70;75.58;96949.47;4979789;28;19955;-74
2022/02/01 11:08:13;;;;;;;;;;;;;;;2.72;75.39;96940.56;4982429;28;19964;-74
2022/02/01 11:10:43;;;;;;;;;;;;;;;2.74;75.58;96940.41;4988455;28;20334;-74
2022/02/01 11:13:11;;;;;;;;;;;;;;;2.73;74.90;96937.03;4983649;28;19959;-74
2022/02/01 11:15:37;;;;;;;;;;;;;;;2.69;75.49;96922.75;4987115;28;20375;-74
2022/02/01 11:18:12;;;;;;;;;;;;;;;2.63;74.73;96905.25;4979482;28;19958;-74
2022/02/01 11:20:39;;;;;;;;;;;;;;;2.56;73.53;96892.13;4984568;28;19959;-74
2022/02/01 11:23:06;;;;;;;;;;;;;;;2.50;72.58;96868.63;4986181;28;20445;-74
2022/02/01 11:25:44;;;;;;;;;;;;;;;2.47;73.81;96861.97;4983885;28;19960;-74
2022/02/01 11:28:15;;;;;;;;;;;;;;;2.41;72.21;96840.09;4978219;28;19956;-74
2022/02/01 11:30:41;;;;;;;;;;;;;;;2.39;73.25;96847.25;4986345;28;19962;-74
2022/02/01 11:33:08;;;;;;;;;;;;;;;2.41;74.10;96847.06;4990515;28;20411;-74
2022/02/01 11:35:34;;;;;;;;;;;;;;;2.41;74.16;96828.94;4985105;28;20452;-74
2022/02/01 11:38:02;;;;;;;;;;;;;;;2.41;73.34;96827.16;4983438;28;19955;-74
2022/02/01 11:40:34;;;;;;;;;;;;;;;2.43;73.33;96819.25;4985711;28;20329;-74
2022/02/01 11:43:04;;;;;;;;;;;;;;;2.42;73.74;96828.00;4985513;28;19960;-74
2022/02/01 11:45:31;;;;;;;;;;;;;;;2.38;73.30;96824.09;4990275;28;19956;-74
2022/02/01 11:47:58;;;;;;;;;;;;;;;2.33;74.15;96829.75;4987561;28;19969;-74
2022/02/01 11:50:27;;;;;;;;;;;;;;;2.37;75.73;96838.00;4986161;28;19977;-73
2022/02/01 11:52:54;;;;;;;;;;;;;;;2.39;76.36;96826.53;4986308;28;20432;-74
2022/02/01 11:55:24;;;;;;;;;;;;;;;2.40;75.65;96817.78;4985939;28;20425;-74
2022/02/01 11:57:51;;;;;;;;;;;;;;;2.40;75.53;96820.38;4969790;28;19959;-73
2022/02/01 12:00:19;;;;;;;;;;;;;;;2.38;75.18;96822.31;4986951;28;19965;-74
2022/02/01 12:02:50;;;;;;;;;;;;;;;2.35;75.64;96817.47;4986645;28;19959;-74
2022/02/01 12:05:36;;;;;;;;;;;;;;;2.37;76.47;96801.75;4988386;28;19965;-74
2022/02/01 12:08:13;;;;;;;;;;;;;;;2.42;77.84;96800.34;4972090;28;19961;-74
2022/02/01 12:10:44;;;;;;;;;;;;;;;2.44;77.42;96790.63;4987620;28;19959;-73
2022/02/01 12:13:12;;;;;;;;;;;;;;;2.43;76.50;96776.06;4987344;28;20468;-74
2022/02/01 12:15:39;;;;;;;;;;;;;;;2.37;76.55;96766.34;4985496;28;19968;-73
2022/02/01 12:18:05;;;;;;;;;;;;;;;2.31;76.53;96766.16;4987207;28;19966;-74
2022/02/01 12:20:34;;;;;;;;;;;;;;;2.26;77.69;96769.22;4982857;28;19950;-74
2022/02/01 12:23:19;;;;;;;;;;;;;;;2.23;77.78;96766.97;4985407;28;20432;-74
2022/02/01 12:25:44;;;;;;;;;;;;;;;2.12;77.93;96752.53;4981481;28;19955;-74
2022/02/01 12:28:18;;;;;;;;;;;;;;;2.06;77.08;96740.22;4987752;28;20058;-74
2022/02/01 12:30:44;;;;;;;;;;;;;;;2.05;78.06;96743.78;4985228;28;20438;-74
2022/02/01 12:33:15;;;;;;;;;;;;;;;2.05;77.53;96737.78;4988661;28;19958;-74
2022/02/01 12:35:42;;;;;;;;;;;;;;;2.02;77.71;96724.22;4981635;28;19972;-74
2022/02/01 12:38:22;;;;;;;;;;;;;;;2.01;77.57;96712.22;4988136;28;19975;-74
2022/02/01 12:40:51;;;;;;;;;;;;;;;2.00;77.15;96715.78;4987064;28;19962;-74
2022/02/01 12:43:22;;;;;;;;;;;;;;;1.96;76.30;96701.56;4986043;28;19954;-74
2022/02/01 12:48:20;;;;;;;;;;;;;;;1.95;76.86;96689.59;4983754;28;19956;-74
2022/02/01 12:50:56;;;;;;;;;;;;;;;1.94;76.76;96687.16;4981408;28;19970;-74
2022/02/01 12:53:22;;;;;;;;;;;;;;;1.93;77.55;96688.13;4986323;28;20328;-74
2022/02/01 12:55:48;;;;;;;;;;;;;;;1.92;77.36;96679.56;4989087;28;19991;-75
2022/02/01 12:58:15;;;;;;;;;;;;;;;1.87;76.70;96686.16;4984852;28;19955;-74
2022/02/01 13:00:46;;;;;;;;;;;;;;;1.80;76.83;96676.44;4983592;28;19956;-74
2022/02/01 13:03:11;;;;;;;;;;;;;;;1.78;77.79;96688.72;4989966;28;20332;-74
2022/02/01 13:05:38;;;;;;;;;;;;;;;1.74;77.10;96656.41;4990441;28;20003;-74
2022/02/01 13:08:34;;;;;;;;;;;;;;;1.69;76.63;96652.66;4978766;28;19970;-74
2022/02/01 13:16:22;;;;;;;;;;;;;;;1.79;78.28;96650.75;4987549;28;19975;-74
2022/02/01 13:21:23;;;;;;;;;;;;;;;1.80;77.30;96623.91;4986194;28;19957;-74
2022/02/01 13:23:50;;;;;;;;;;;;;;;1.83;78.13;96629.59;4987903;28;19960;-74
2022/02/01 13:26:17;;;;;;;;;;;;;;;1.85;77.64;96626.03;4985730;28;19969;-74
2022/02/01 13:28:54;;;;;;;;;;;;;;;1.83;78.12;96615.88;4980276;28;20444;-74
2022/02/01 13:31:25;;;;;;;;;;;;;;;1.86;78.43;96618.13;4984001;28;20322;-74
2022/02/01 13:33:57;;;;;;;;;;;;;;;1.85;78.16;96602.75;4986254;28;19959;-74
2022/02/01 13:36:23;;;;;;;;;;;;;;;1.82;78.30;96581.41;4987179;28;19982;-74
2022/02/01 13:38:53;;;;;;;;;;;;;;;1.76;78.97;96620.03;4982477;28;19964;-74
2022/02/01 13:41:20;;;;;;;;;;;;;;;1.67;78.71;96606.28;4979087;28;19977;-74
2022/02/01 13:43:50;;;;;;;;;;;;;;;1.61;79.34;96592.19;4985702;28;19969;-74
2022/02/01 13:46:20;;;;;;;;;;;;;;;1.60;79.86;96593.19;4988654;28;19964;-74
2022/02/01 13:48:57;;;;;;;;;;;;;;;1.59;80.24;96607.06;4980257;28;19968;-74
2022/02/01 13:51:23;;;;;;;;;;;;;;;1.59;80.26;96608.84;4982952;28;19958;-74
2022/02/01 13:54:04;;;;;;;;;;;;;;;1.59;80.56;96603.66;4982346;28;19984;-74
2022/02/01 13:56:31;;;;;;;;;;;;;;;1.52;80.32;96610.44;4982446;28;19976;-74
2022/02/01 13:59:07;;;;;;;;;;;;;;;1.48;80.46;96609.13;4987931;28;19958;-74
2022/02/01 14:01:33;;;;;;;;;;;;;;;1.46;80.72;96613.66;4990191;28;19955;-74
2022/02/01 14:04:06;;;;;;;;;;;;;;;1.44;80.92;96610.41;4982363;28;19962;-74
2022/02/01 14:26:01;;;;;;;;;;;;;;;1.17;83.49;96558.00;4985130;28;19985;-74
2022/02/01 14:36:07;;;;;;;;;;;;;;;0.93;86.28;96551.78;4983393;28;19965;-74
2022/02/01 14:46:24;;;;;;;;;;;;;;;0.78;88.35;96528.31;4984688;28;19958;-74
2022/02/01 14:48:50;;;;;;;;;;;;;;;0.74;88.70;96524.41;4981629;28;20045;-74
2022/02/01 14:51:16;;;;;;;;;;;;;;;0.73;88.92;96520.22;4981506;28;20312;-73
2022/02/01 14:53:41;;;;;;;;;;;;;;;0.76;88.47;96519.91;4983432;28;19969;-74
2022/02/01 14:56:34;;;;;;;;;;;;;;;0.76;89.10;96512.16;4983417;28;20361;-74
2022/02/01 15:07:04;;;;;;;;;;;;;;;0.71;89.48;96467.13;4978176;28;19956;-74
2022/02/01 15:14:41;;;;;;;;;;;;;;;0.71;89.27;96436.97;4987339;28;19987;-74
2022/02/01 15:17:08;;;;;;;;;;;;;;;0.77;89.53;96432.94;4991541;28;19984;-74
2022/02/01 15:19:34;;;;;;;;;;;;;;;0.79;89.65;96441.34;4968442;28;19955;-74